Time;durP1;ratioP1;P1;durP2;ratioP2;P2;SDS_P1;SDS_P2;PMS_P1;PMS_P2;Temp;Humidity;BMP_temperature;BMP_pressure;BME280_temperature;BME280_humidity;BME280_pressure;Samples;Min_cycle;Max_cycle;Signal;HPM_P1;HPM_P2
2023/05/08 00:00:03;;;;;;;30.73;28.52;;;12.90;99.90;;;;;;5050079;28;20419;-75
2023/05/08 00:02:35;;;;;;;29.67;27.27;;;12.70;99.90;;;;;;5060996;28;20084;-75
2023/05/08 00:05:04;;;;;;;29.77;27.48;;;12.70;99.90;;;;;;5055089;28;20068;-75
2023/05/08 00:07:36;;;;;;;30.65;28.25;;;12.80;99.90;;;;;;5045014;28;20041;-75
2023/05/08 00:10:05;;;;;;;32.10;29.60;;;12.70;99.90;;;;;;5056351;28;20048;-75
2023/05/08 00:12:31;;;;;;;31.27;28.77;;;12.70;99.90;;;;;;5046473;28;20120;-75
2023/05/08 00:15:17;;;;;;;30.75;28.35;;;12.60;99.90;;;;;;5040136;28;20032;-75
2023/05/08 00:17:49;;;;;;;29.95;27.65;;;12.60;99.90;;;;;;5056760;28;20509;-74
2023/05/08 00:20:22;;;;;;;31.08;28.67;;;12.60;99.90;;;;;;5072684;28;20036;-75
2023/05/08 00:22:56;;;;;;;31.60;29.20;;;12.60;99.90;;;;;;5041606;28;20056;-75
2023/05/08 00:25:34;;;;;;;32.35;29.85;;;12.60;99.90;;;;;;5047770;28;20052;-75
2023/05/08 00:28:05;;;;;;;32.10;29.65;;;12.60;99.90;;;;;;5045266;28;20041;-75
2023/05/08 00:30:42;;;;;;;31.63;29.10;;;12.60;99.90;;;;;;5036610;28;20499;-75
2023/05/08 00:33:15;;;;;;;32.22;29.52;;;12.60;99.90;;;;;;5040016;28;20529;-75
2023/05/08 00:35:59;;;;;;;31.20;28.80;;;12.50;99.90;;;;;;5048503;28;20594;-75
2023/05/08 00:38:49;;;;;;;;;;;;;;;;;;;;;
2023/05/08 00:41:23;;;;;;;32.75;30.20;;;12.40;99.90;;;;;;5032993;28;20045;-75
2023/05/08 00:44:15;;;;;;;31.75;29.30;;;12.40;99.90;;;;;;5058649;28;20053;-75
2023/05/08 00:46:48;;;;;;;31.48;28.95;;;12.40;99.90;;;;;;5071646;28;20052;-75
2023/05/08 00:49:22;;;;;;;32.03;29.63;;;12.40;99.90;;;;;;5055988;28;20406;-75
2023/05/08 00:51:57;;;;;;;31.60;29.17;;;12.40;99.90;;;;;;5068390;28;20037;-74
2023/05/08 00:54:25;;;;;;;32.33;29.92;;;12.30;99.90;;;;;;5047074;28;20045;-75
2023/05/08 00:56:52;;;;;;;32.33;29.75;;;12.30;99.90;;;;;;5055133;28;20032;-75
2023/05/08 00:59:35;;;;;;;32.75;30.25;;;12.30;99.90;;;;;;5035711;28;20041;-75
2023/05/08 01:02:14;;;;;;;33.30;30.75;;;12.20;99.90;;;;;;5050569;28;20045;-74
2023/05/08 01:04:43;;;;;;;32.33;29.83;;;12.20;99.90;;;;;;5040500;28;20037;-74
2023/05/08 01:07:17;;;;;;;33.97;31.35;;;12.20;99.90;;;;;;5047796;28;20048;-74
2023/05/08 01:09:45;;;;;;;34.25;31.55;;;12.10;99.90;;;;;;5055238;28;20098;-74
2023/05/08 01:12:45;;;;;;;34.67;31.92;;;12.20;99.90;;;;;;5051489;28;20169;-74
2023/05/08 01:15:40;;;;;;;37.08;34.17;;;12.10;99.90;;;;;;5039418;28;20052;-75
2023/05/08 01:18:30;;;;;;;36.42;33.63;;;12.00;99.90;;;;;;5034225;28;20480;-75
2023/05/08 01:21:05;;;;;;;39.88;36.70;;;11.90;99.90;;;;;;5035153;28;20179;-75
2023/05/08 01:23:53;;;;;;;39.70;36.65;;;11.90;99.90;;;;;;5035075;28;20132;-74
2023/05/08 01:26:24;;;;;;;41.35;38.05;;;11.80;99.90;;;;;;5059143;28;20044;-75
2023/05/08 01:29:29;;;;;;;42.55;39.10;;;11.70;99.90;;;;;;5044457;28;20122;-75
2023/05/08 01:32:14;;;;;;;42.47;39.28;;;11.70;99.90;;;;;;5015030;28;20045;-75
2023/05/08 01:35:06;;;;;;;42.40;38.97;;;11.60;99.90;;;;;;5024338;28;20048;-75
2023/05/08 01:37:56;;;;;;;44.42;40.88;;;11.50;99.90;;;;;;5059805;28;20051;-74
2023/05/08 01:40:51;;;;;;;43.13;39.72;;;11.50;99.90;;;;;;5027953;28;20049;-75
2023/05/08 01:43:41;;;;;;;44.08;40.55;;;11.40;99.90;;;;;;5045162;28;20049;-75
2023/05/08 01:46:15;;;;;;;47.17;43.38;;;11.50;99.90;;;;;;5035527;28;20049;-75
2023/05/08 01:48:59;;;;;;;45.88;42.17;;;11.30;99.90;;;;;;5032813;28;20634;-75
2023/05/08 01:51:27;;;;;;;42.80;39.47;;;11.30;99.90;;;;;;5014398;28;20041;-75
2023/05/08 01:54:02;;;;;;;41.10;37.83;;;11.20;99.90;;;;;;5032246;28;20040;-75
2023/05/08 01:56:34;;;;;;;43.10;39.70;;;11.20;99.90;;;;;;5051000;28;20041;-75
2023/05/08 01:59:01;;;;;;;42.58;39.05;;;11.10;99.90;;;;;;5027135;28;20045;-75
2023/05/08 02:01:39;;;;;;;42.75;39.38;;;11.10;99.90;;;;;;5034769;28;20045;-74
2023/05/08 02:04:16;;;;;;;41.00;37.70;;;11.10;99.90;;;;;;5044433;28;20045;-75
2023/05/08 02:06:45;;;;;;;41.58;38.28;;;11.00;99.90;;;;;;5036133;28;20086;-74
2023/05/08 02:09:11;;;;;;;41.05;37.67;;;10.90;99.90;;;;;;5061321;28;20032;-75
2023/05/08 02:11:48;;;;;;;41.70;38.38;;;10.90;99.90;;;;;;5047053;28;20041;-75
2023/05/08 02:14:17;;;;;;;41.88;38.58;;;10.80;99.90;;;;;;5053971;28;20119;-75
2023/05/08 02:16:45;;;;;;;39.10;36.10;;;10.80;99.90;;;;;;5054000;28;20033;-75
2023/05/08 02:19:17;;;;;;;40.67;37.30;;;10.70;99.90;;;;;;5049735;28;20506;-75
2023/05/08 02:21:47;;;;;;;38.88;35.72;;;10.70;99.90;;;;;;5041249;28;20093;-76
2023/05/08 02:24:21;;;;;;;39.67;36.47;;;10.70;99.90;;;;;;5031662;28;20040;-75
2023/05/08 02:26:55;;;;;;;39.08;36.00;;;10.80;99.90;;;;;;5034458;28;20037;-75
2023/05/08 02:29:27;;;;;;;38.50;35.40;;;10.70;99.90;;;;;;5040781;28;20075;-74
2023/05/08 02:32:06;;;;;;;38.70;35.65;;;10.80;99.90;;;;;;5041105;28;20049;-75
2023/05/08 02:35:01;;;;;;;38.15;35.13;;;10.70;99.90;;;;;;5050846;28;20123;-74
2023/05/08 02:37:43;;;;;;;37.90;34.90;;;10.80;99.90;;;;;;5048381;28;20041;-75
2023/05/08 02:40:32;;;;;;;39.15;35.90;;;10.70;99.90;;;;;;5041122;28;20037;-74
2023/05/08 02:43:07;;;;;;;39.22;36.05;;;10.70;99.90;;;;;;5034655;28;20064;-75
2023/05/08 02:46:00;;;;;;;38.88;35.88;;;10.70;99.90;;;;;;5034966;28;20044;-74
2023/05/08 02:48:44;;;;;;;38.85;35.75;;;10.70;99.90;;;;;;5033000;28;20049;-74
2023/05/08 02:51:45;;;;;;;39.50;36.40;;;10.60;99.90;;;;;;5032919;28;20048;-74
2023/05/08 02:54:46;;;;;;;38.67;35.67;;;10.50;99.90;;;;;;5034980;28;20053;-74
2023/05/08 02:57:21;;;;;;;40.15;36.90;;;10.40;99.90;;;;;;5052993;28;20039;-74
2023/05/08 03:00:02;;;;;;;39.38;36.28;;;10.40;99.90;;;;;;5042113;28;20139;-74
2023/05/08 03:02:39;;;;;;;39.92;36.80;;;10.40;99.90;;;;;;5034548;28;20068;-74
2023/05/08 03:05:30;;;;;;;39.80;36.80;;;10.30;99.90;;;;;;5045626;28;20127;-74
2023/05/08 03:08:23;;;;;;;38.80;35.72;;;10.30;99.90;;;;;;5042805;28;20578;-74
2023/05/08 03:11:11;;;;;;;41.25;37.80;;;10.30;99.90;;;;;;5031854;28;20500;-74
2023/05/08 03:17:23;;;;;;;42.05;38.65;;;10.30;99.90;;;;;;5046241;28;20044;-74
2023/05/08 03:20:07;;;;;;;40.58;37.38;;;10.30;99.90;;;;;;5054393;28;20062;-74
2023/05/08 03:22:54;;;;;;;41.88;38.58;;;10.30;99.90;;;;;;5051467;28;20098;-74
2023/05/08 03:25:41;;;;;;;41.38;38.10;;;10.30;99.90;;;;;;5065920;28;20041;-74
2023/05/08 03:28:10;;;;;;;42.50;39.03;;;10.20;99.90;;;;;;5038817;28;20124;-74
2023/05/08 03:30:42;;;;;;;41.85;38.35;;;10.20;99.90;;;;;;5065438;28;20033;-74
2023/05/08 03:33:11;;;;;;;41.47;38.10;;;10.20;99.90;;;;;;5053201;28;20079;-74
2023/05/08 03:35:37;;;;;;;40.95;37.67;;;10.10;99.90;;;;;;5040158;28;20124;-74
2023/05/08 03:38:06;;;;;;;40.75;37.45;;;10.20;99.90;;;;;;5026222;28;20095;-74
2023/05/08 03:40:41;;;;;;;40.88;37.58;;;10.10;99.90;;;;;;5053160;28;20049;-74
2023/05/08 03:43:16;;;;;;;40.35;37.05;;;10.10;99.90;;;;;;5041979;28;20048;-74
2023/05/08 03:45:46;;;;;;;41.47;38.20;;;10.10;99.90;;;;;;5042997;28;20045;-74
2023/05/08 03:48:14;;;;;;;40.50;37.20;;;10.10;99.90;;;;;;5067328;28;20032;-74
2023/05/08 03:50:40;;;;;;;40.83;37.53;;;10.00;99.90;;;;;;5054896;28;20040;-74
2023/05/08 03:53:06;;;;;;;40.83;37.63;;;10.00;99.90;;;;;;5073062;28;20044;-74
2023/05/08 03:55:32;;;;;;;40.15;36.95;;;9.90;99.90;;;;;;5053343;28;20045;-74
2023/05/08 03:58:16;;;;;;;40.88;37.58;;;10.00;99.90;;;;;;5048897;28;20162;-74
2023/05/08 04:00:53;;;;;;;41.00;37.70;;;10.00;99.90;;;;;;5056223;28;20078;-74
2023/05/08 04:03:46;;;;;;;40.13;37.03;;;9.90;99.90;;;;;;5038849;28;20124;-74
2023/05/08 04:06:45;;;;;;;40.17;36.97;;;9.90;99.90;;;;;;5058880;28;20095;-74
2023/05/08 04:09:26;;;;;;;39.08;35.83;;;9.90;99.90;;;;;;5031744;28;20045;-74
2023/05/08 04:12:08;;;;;;;40.03;36.72;;;9.90;99.90;;;;;;5055862;28;20124;-74
2023/05/08 04:14:43;;;;;;;38.92;35.80;;;9.80;99.90;;;;;;5049826;28;20580;-74
2023/05/08 04:17:10;;;;;;;39.03;35.92;;;9.80;99.90;;;;;;5048284;28;20152;-74
2023/05/08 04:19:44;;;;;;;38.53;35.53;;;9.90;99.90;;;;;;5031394;28;20128;-74
2023/05/08 04:22:16;;;;;;;37.00;34.05;;;9.90;99.90;;;;;;5058980;28;20085;-74
2023/05/08 04:24:48;;;;;;;39.45;36.35;;;9.90;99.90;;;;;;5036362;28;20071;-74
2023/05/08 04:27:15;;;;;;;37.55;34.58;;;9.90;99.90;;;;;;5042068;28;20098;-74
2023/05/08 04:29:44;;;;;;;39.38;36.10;;;9.90;99.90;;;;;;5061852;28;20051;-74
2023/05/08 04:32:11;;;;;;;37.58;34.45;;;10.00;99.90;;;;;;5063898;28;20044;-74
2023/05/08 04:34:40;;;;;;;37.78;34.78;;;9.90;99.90;;;;;;5056187;28;20040;-74
2023/05/08 04:37:08;;;;;;;36.75;33.67;;;9.90;99.90;;;;;;5039561;28;20033;-74
2023/05/08 04:39:37;;;;;;;37.47;34.38;;;10.00;99.90;;;;;;5051424;28;20518;-74
2023/05/08 04:42:03;;;;;;;37.22;34.17;;;9.90;99.90;;;;;;5019638;28;20053;-74
2023/05/08 04:44:34;;;;;;;37.35;34.42;;;10.00;99.90;;;;;;5036466;28;20129;-74
2023/05/08 04:47:03;;;;;;;35.88;33.10;;;10.00;99.90;;;;;;5035941;28;20509;-74
2023/05/08 04:49:29;;;;;;;36.28;33.47;;;10.00;99.90;;;;;;5042974;28;20131;-74
2023/05/08 04:51:57;;;;;;;37.05;34.15;;;10.10;99.90;;;;;;5048121;28;20032;-74
2023/05/08 04:54:26;;;;;;;36.30;33.35;;;10.00;99.90;;;;;;5042524;28;20497;-74
2023/05/08 04:56:55;;;;;;;35.13;32.30;;;10.10;99.90;;;;;;5043625;28;20045;-74
2023/05/08 04:59:24;;;;;;;33.50;30.90;;;10.20;99.90;;;;;;5035252;28;20048;-74
2023/05/08 05:01:52;;;;;;;30.65;28.17;;;10.60;99.90;;;;;;5037284;28;20044;-74
2023/05/08 05:04:20;;;;;;;33.20;30.70;;;10.90;99.90;;;;;;5052677;28;20052;-75
2023/05/08 05:06:49;;;;;;;31.90;29.50;;;11.20;99.90;;;;;;5052234;28;20052;-75
2023/05/08 05:09:15;;;;;;;29.00;26.70;;;11.70;99.90;;;;;;5035264;28;20044;-75
2023/05/08 05:11:43;;;;;;;28.15;25.95;;;12.30;99.90;;;;;;5034649;28;20040;-74
2023/05/08 05:14:09;;;;;;;27.48;25.38;;;12.50;99.90;;;;;;5049738;28;20040;-74
2023/05/08 05:16:40;;;;;;;26.95;24.85;;;12.70;99.90;;;;;;5054582;28;20460;-77
2023/05/08 05:19:19;;;;;;;26.63;24.63;;;12.80;99.90;;;;;;5034462;28;20124;-77
2023/05/08 05:22:06;;;;;;;26.20;24.30;;;12.80;99.90;;;;;;5049231;28;20041;-75
2023/05/08 05:25:04;;;;;;;26.02;24.10;;;12.90;99.90;;;;;;5045401;28;20059;-75
2023/05/08 05:28:02;;;;;;;26.63;24.60;;;13.00;99.90;;;;;;5061457;28;20446;-75
2023/05/08 05:30:38;;;;;;;27.45;25.25;;;12.90;99.90;;;;;;5046967;28;20479;-73
2023/05/08 05:33:09;;;;;;;26.25;24.25;;;12.50;99.90;;;;;;5055455;28;20049;-73
2023/05/08 05:35:35;;;;;;;27.63;25.52;;;12.20;99.90;;;;;;5025656;28;20076;-73
2023/05/08 05:38:00;;;;;;;26.80;24.80;;;12.00;99.90;;;;;;5057638;28;20095;-73
2023/05/08 05:40:26;;;;;;;29.02;26.63;;;11.90;99.90;;;;;;5048895;28;20042;-73
2023/05/08 05:42:51;;;;;;;30.80;28.40;;;11.80;99.90;;;;;;5039663;28;20396;-73
2023/05/08 05:45:17;;;;;;;28.13;25.92;;;11.80;99.90;;;;;;5031460;28;20518;-73
2023/05/08 05:47:45;;;;;;;28.60;26.30;;;11.80;99.90;;;;;;5031432;28;20120;-73
2023/05/08 05:50:10;;;;;;;27.67;25.42;;;11.90;99.90;;;;;;5038756;28;20041;-73
2023/05/08 05:52:36;;;;;;;29.27;27.08;;;11.80;99.90;;;;;;5045389;28;20520;-73
2023/05/08 05:55:04;;;;;;;30.10;27.73;;;11.90;99.90;;;;;;5045994;28;20453;-74
2023/05/08 05:57:33;;;;;;;27.27;25.25;;;12.00;99.90;;;;;;5032652;28;20045;-74
2023/05/08 05:59:59;;;;;;;28.23;26.02;;;12.00;99.90;;;;;;5062612;28;20089;-74
2023/05/08 06:02:25;;;;;;;27.10;24.92;;;12.20;99.90;;;;;;5049171;28;20045;-75
2023/05/08 06:04:51;;;;;;;24.02;22.23;;;12.30;99.90;;;;;;5049026;28;20041;-73
2023/05/08 06:07:20;;;;;;;24.40;22.42;;;12.40;99.90;;;;;;5050751;28;20404;-73
2023/05/08 06:09:50;;;;;;;24.67;22.70;;;12.50;99.90;;;;;;5052493;28;20482;-75
2023/05/08 06:12:17;;;;;;;25.63;23.83;;;12.60;99.90;;;;;;5041281;28;20036;-73
2023/05/08 06:14:42;;;;;;;26.08;23.98;;;12.70;99.90;;;;;;5055274;28;20043;-73
2023/05/08 06:17:08;;;;;;;24.55;22.65;;;12.70;99.90;;;;;;5052369;28;20037;-74
2023/05/08 06:19:34;;;;;;;24.80;22.90;;;12.70;99.90;;;;;;5051348;28;20048;-74
2023/05/08 06:21:59;;;;;;;25.27;23.30;;;12.90;99.90;;;;;;5070764;28;20093;-74
2023/05/08 06:24:25;;;;;;;22.35;20.73;;;13.30;99.90;;;;;;5049237;28;20515;-74
2023/05/08 06:26:50;;;;;;;23.80;22.10;;;13.60;99.90;;;;;;5048844;28;20123;-74
2023/05/08 06:29:16;;;;;;;22.80;21.10;;;13.80;99.90;;;;;;5036162;28;20110;-74
2023/05/08 06:31:41;;;;;;;22.63;21.00;;;13.90;99.90;;;;;;5030745;28;20069;-74
2023/05/08 06:34:08;;;;;;;23.02;21.23;;;14.00;99.90;;;;;;5041612;28;20446;-74
2023/05/08 06:36:33;;;;;;;20.58;18.98;;;14.00;99.90;;;;;;5025143;28;20048;-74
2023/05/08 06:38:59;;;;;;;21.15;19.50;;;14.10;99.90;;;;;;5033274;28;20522;-74
2023/05/08 06:41:25;;;;;;;21.05;19.45;;;14.20;99.90;;;;;;5034448;28;20099;-74
2023/05/08 06:43:50;;;;;;;20.77;19.17;;;14.20;99.90;;;;;;5030705;28;20049;-74
2023/05/08 06:46:21;;;;;;;22.48;20.77;;;14.30;99.90;;;;;;5042759;28;20531;-74
2023/05/08 06:48:46;;;;;;;20.40;18.80;;;14.40;99.90;;;;;;5042373;28;20458;-74
2023/05/08 06:51:12;;;;;;;21.08;19.58;;;14.60;99.90;;;;;;5033956;28;20045;-74
2023/05/08 06:53:37;;;;;;;22.23;20.60;;;14.70;99.90;;;;;;5050310;28;20071;-74
2023/05/08 06:56:03;;;;;;;21.85;20.20;;;14.80;99.90;;;;;;5049010;28;20049;-74
2023/05/08 06:58:30;;;;;;;20.02;18.42;;;14.90;99.90;;;;;;5030452;28;20411;-74
2023/05/08 07:01:01;;;;;;;19.23;17.83;;;15.00;99.90;;;;;;5038088;28;20144;-74
2023/05/08 07:03:27;;;;;;;20.30;18.60;;;15.00;99.90;;;;;;5030494;28;20056;-74
2023/05/08 07:05:52;;;;;;;20.25;18.75;;;15.10;99.90;;;;;;5034654;28;20481;-74
2023/05/08 07:08:18;;;;;;;20.67;19.15;;;15.10;99.90;;;;;;5048576;22;20048;-74
2023/05/08 07:10:44;;;;;;;22.63;20.77;;;15.20;99.90;;;;;;5046561;28;20167;-74
2023/05/08 07:13:10;;;;;;;21.38;19.77;;;15.30;99.90;;;;;;5034288;28;20061;-74
2023/05/08 07:15:35;;;;;;;21.08;19.38;;;15.30;99.90;;;;;;5024611;28;20175;-74
2023/05/08 07:18:03;;;;;;;23.48;21.67;;;15.40;99.90;;;;;;5053823;28;20044;-74
2023/05/08 07:20:28;;;;;;;22.52;20.85;;;15.50;99.90;;;;;;5091861;22;20536;-75
2023/05/08 07:22:54;;;;;;;22.73;20.92;;;15.60;99.90;;;;;;5093546;28;20036;-75
2023/05/08 07:25:19;;;;;;;21.58;19.85;;;15.80;99.90;;;;;;5085849;28;20086;-74
2023/05/08 07:27:45;;;;;;;21.77;20.17;;;15.80;99.90;;;;;;5094103;28;20433;-75
2023/05/08 07:30:11;;;;;;;22.02;20.33;;;15.80;99.90;;;;;;5099460;28;20043;-75
2023/05/08 07:32:38;;;;;;;22.80;21.10;;;15.90;99.90;;;;;;5091806;28;20041;-74
2023/05/08 07:35:04;;;;;;;21.77;20.17;;;16.00;99.90;;;;;;5106020;28;20044;-75
2023/05/08 07:37:30;;;;;;;22.30;20.70;;;16.00;99.90;;;;;;5114382;28;20492;-75
2023/05/08 07:39:56;;;;;;;21.83;20.23;;;16.10;99.90;;;;;;5114422;28;20043;-75
2023/05/08 07:42:22;;;;;;;21.38;19.85;;;16.20;99.90;;;;;;5112373;28;20071;-74
2023/05/08 07:44:47;;;;;;;22.40;20.75;;;16.40;99.90;;;;;;5104969;28;20044;-74
2023/05/08 07:47:13;;;;;;;23.88;22.08;;;16.30;99.90;;;;;;5114203;28;20073;-75
2023/05/08 07:49:38;;;;;;;23.55;21.85;;;16.20;99.90;;;;;;5114649;28;20071;-74
2023/05/08 07:52:04;;;;;;;25.33;23.33;;;16.30;99.90;;;;;;5114358;28;20036;-75
2023/05/08 07:54:30;;;;;;;21.27;19.77;;;16.50;99.90;;;;;;5104344;28;20039;-75
2023/05/08 07:56:55;;;;;;;22.70;21.10;;;16.70;99.90;;;;;;5105404;28;20533;-76
2023/05/08 07:59:21;;;;;;;23.13;21.38;;;16.80;99.90;;;;;;5105049;28;20501;-75
2023/05/08 08:01:46;;;;;;;23.08;21.25;;;16.90;99.90;;;;;;5114209;28;20044;-75
2023/05/08 08:04:13;;;;;;;22.35;20.65;;;16.90;99.90;;;;;;5104984;28;20126;-75
2023/05/08 08:06:39;;;;;;;21.90;20.15;;;17.00;99.90;;;;;;5111668;28;20051;-75
2023/05/08 08:09:05;;;;;;;22.15;20.45;;;17.10;99.90;;;;;;5113951;28;20058;-74
2023/05/08 08:11:30;;;;;;;22.42;20.73;;;17.10;99.90;;;;;;5109608;28;20082;-74
2023/05/08 08:13:56;;;;;;;22.73;20.80;;;17.10;99.90;;;;;;5105615;28;20028;-75
2023/05/08 08:16:22;;;;;;;24.40;22.70;;;17.00;99.90;;;;;;5113625;28;20035;-75
2023/05/08 08:18:47;;;;;;;22.75;21.05;;;16.90;99.90;;;;;;5109449;28;20047;-74
2023/05/08 08:21:13;;;;;;;21.95;20.45;;;16.90;99.90;;;;;;5101509;28;20489;-74
2023/05/08 08:23:38;;;;;;;22.48;20.77;;;17.10;99.90;;;;;;5111015;28;20093;-75
2023/05/08 08:26:06;;;;;;;23.60;21.80;;;17.00;99.90;;;;;;5113400;28;20493;-75
2023/05/08 08:28:32;;;;;;;23.15;21.45;;;17.00;99.90;;;;;;5113486;28;20040;-76
2023/05/08 08:30:57;;;;;;;23.30;21.65;;;17.10;99.90;;;;;;5101196;28;20118;-75
2023/05/08 08:33:23;;;;;;;25.15;23.23;;;17.20;99.90;;;;;;5109120;28;20093;-75
2023/05/08 08:35:48;;;;;;;25.67;23.73;;;17.30;99.90;;;;;;5096215;28;20039;-76
2023/05/08 08:38:15;;;;;;;24.42;22.52;;;17.40;99.90;;;;;;5113293;28;20036;-75
2023/05/08 08:40:41;;;;;;;23.05;21.38;;;17.60;99.90;;;;;;5102850;28;20438;-75
2023/05/08 08:43:07;;;;;;;23.58;21.88;;;17.80;99.90;;;;;;5106956;28;20040;-75
2023/05/08 08:45:35;;;;;;;25.40;23.30;;;18.00;99.90;;;;;;5096297;28;20039;-75
2023/05/08 08:48:02;;;;;;;24.33;22.52;;;18.30;99.90;;;;;;5113254;28;20058;-75
2023/05/08 08:50:33;;;;;;;24.90;23.10;;;18.80;99.90;;;;;;5105626;28;20411;-75
2023/05/08 08:53:09;;;;;;;21.80;20.30;;;19.10;99.90;;;;;;5097824;28;20048;-75
2023/05/08 08:55:38;;;;;;;23.70;22.00;;;19.30;99.90;;;;;;5096341;28;20082;-75
2023/05/08 08:58:16;;;;;;;24.40;22.50;;;19.40;99.90;;;;;;5112890;28;20071;-75
2023/05/08 09:00:42;;;;;;;21.83;20.20;;;19.60;99.90;;;;;;5103219;28;20043;-74
2023/05/08 09:03:08;;;;;;;22.38;20.75;;;19.70;99.90;;;;;;5105830;28;20437;-75
2023/05/08 09:05:34;;;;;;;22.70;21.10;;;19.90;99.90;;;;;;5113150;28;20051;-75
2023/05/08 09:08:00;;;;;;;21.58;19.88;;;20.10;99.90;;;;;;5112615;28;20035;-75
2023/05/08 09:10:26;;;;;;;22.15;20.48;;;20.40;99.90;;;;;;5088221;28;20184;-76
2023/05/08 09:12:52;;;;;;;21.58;19.88;;;20.60;99.90;;;;;;5104085;28;20040;-75
2023/05/08 09:15:17;;;;;;;20.80;19.27;;;20.90;99.90;;;;;;5112767;28;20040;-76
2023/05/08 09:17:43;;;;;;;21.02;19.52;;;21.40;99.90;;;;;;5112579;28;20078;-75
2023/05/08 09:20:09;;;;;;;20.95;19.42;;;21.70;96.70;;;;;;5105795;28;20043;-75
2023/05/08 09:22:36;;;;;;;21.70;20.02;;;21.70;99.90;;;;;;5104124;28;20054;-75
2023/05/08 09:25:02;;;;;;;19.98;18.48;;;22.00;99.90;;;;;;5095531;28;20044;-75
2023/05/08 09:27:29;;;;;;;19.45;17.85;;;22.50;99.90;;;;;;5112328;28;20262;-75
2023/05/08 09:29:59;;;;;;;20.38;18.92;;;23.10;99.90;;;;;;5106685;28;20039;-76
2023/05/08 09:32:25;;;;;;;19.88;18.30;;;23.50;99.90;;;;;;5103741;28;20438;-75
2023/05/08 09:34:53;;;;;;;20.23;18.73;;;23.80;99.90;;;;;;5112175;28;20035;-76
2023/05/08 09:37:20;;;;;;;19.45;18.05;;;24.10;99.90;;;;;;5111185;27;20043;-76
2023/05/08 09:39:46;;;;;;;18.60;17.10;;;24.50;92.60;;;;;;5106022;28;20035;-75
2023/05/08 09:42:12;;;;;;;19.13;17.63;;;24.70;74.90;;;;;;5103537;28;20036;-75
2023/05/08 09:44:52;;;;;;;19.75;18.25;;;24.40;73.10;;;;;;5112401;28;20048;-76
2023/05/08 09:47:22;;;;;;;20.60;19.00;;;24.00;83.50;;;;;;5112037;28;20035;-75
2023/05/08 09:50:09;;;;;;;20.10;18.70;;;24.10;94.10;;;;;;5107309;28;20389;-75
2023/05/08 09:52:36;;;;;;;19.90;18.42;;;24.60;86.70;;;;;;5103439;28;20134;-76
2023/05/08 09:55:04;;;;;;;19.23;17.73;;;24.90;92.30;;;;;;5111895;28;20039;-75
2023/05/08 09:57:32;;;;;;;19.02;17.50;;;25.20;80.30;;;;;;5094843;28;20053;-75
2023/05/08 10:00:02;;;;;;;19.58;18.20;;;25.30;80.80;;;;;;5106962;28;20035;-76
2023/05/08 10:02:27;;;;;;;17.70;16.30;;;25.30;88.30;;;;;;5103162;28;20386;-75
2023/05/08 10:04:53;;;;;;;18.63;17.23;;;25.60;72.40;;;;;;5111668;28;20065;-76
2023/05/08 10:07:33;;;;;;;18.90;17.45;;;25.20;79.20;;;;;;5111413;28;20043;-76
2023/05/08 10:10:00;;;;;;;19.65;18.15;;;25.30;75.60;;;;;;5090741;28;20031;-75
2023/05/08 10:12:27;;;;;;;19.83;18.23;;;25.10;80.60;;;;;;5103019;28;20079;-75
2023/05/08 10:14:53;;;;;;;18.42;16.95;;;24.80;80.60;;;;;;5111565;28;20111;-75
2023/05/08 10:17:39;;;;;;;18.65;17.30;;;24.60;84.30;;;;;;5111439;28;20046;-75
2023/05/08 10:20:06;;;;;;;18.15;16.85;;;24.80;85.80;;;;;;5107949;28;20484;-75
2023/05/08 10:22:35;;;;;;;18.55;17.05;;;24.90;79.90;;;;;;5102893;28;20046;-75
2023/05/08 10:25:02;;;;;;;19.10;17.65;;;24.70;78.10;;;;;;5111439;28;20039;-75
2023/05/08 10:27:43;;;;;;;19.27;17.77;;;24.70;85.50;;;;;;5111133;28;20115;-76
2023/05/08 10:30:12;;;;;;;18.95;17.55;;;25.10;89.60;;;;;;5103879;28;20506;-75
2023/05/08 10:32:41;;;;;;;18.50;17.20;;;25.50;88.20;;;;;;5082219;28;20040;-75
2023/05/08 10:35:09;;;;;;;19.90;18.30;;;25.70;74.90;;;;;;5090880;28;20043;-75
2023/05/08 10:37:36;;;;;;;18.85;17.35;;;25.50;77.60;;;;;;5090648;28;20047;-75
2023/05/08 10:40:04;;;;;;;19.20;17.55;;;25.40;71.50;;;;;;5094494;28;20421;-75
2023/05/08 10:42:32;;;;;;;19.35;17.95;;;25.10;74.40;;;;;;5102541;28;20047;-75
2023/05/08 10:44:58;;;;;;;20.63;19.02;;;24.90;78.70;;;;;;5111047;28;20039;-75
2023/05/08 10:47:38;;;;;;;20.95;19.33;;;25.00;79.20;;;;;;5110666;28;20054;-75
2023/05/08 10:50:25;;;;;;;19.67;18.17;;;25.10;81.00;;;;;;5082158;28;20040;-75
2023/05/08 10:53:04;;;;;;;19.17;17.67;;;25.20;81.50;;;;;;5102735;28;20108;-75
2023/05/08 10:55:37;;;;;;;19.55;18.10;;;25.30;83.70;;;;;;5102740;28;20040;-75
2023/05/08 10:58:16;;;;;;;19.83;18.45;;;25.40;83.40;;;;;;5110821;28;20043;-75
2023/05/08 11:00:51;;;;;;;19.80;18.30;;;25.30;77.00;;;;;;5110823;28;20087;-75
2023/05/08 11:03:17;;;;;;;19.25;17.75;;;25.40;75.70;;;;;;5087170;28;20552;-74
2023/05/08 11:05:47;;;;;;;19.30;17.90;;;25.30;76.90;;;;;;5099468;28;20048;-75
2023/05/08 11:08:23;;;;;;;20.60;19.10;;;25.70;71.60;;;;;;5080915;28;20051;-75
2023/05/08 11:10:58;;;;;;;21.25;19.75;;;25.80;69.20;;;;;;5110109;28;20088;-75
2023/05/08 11:13:34;;;;;;;21.00;19.42;;;25.40;72.00;;;;;;5110814;28;20377;-75
2023/05/08 11:16:01;;;;;;;21.88;20.27;;;25.10;77.80;;;;;;5110612;28;20103;-75
2023/05/08 11:18:27;;;;;;;20.83;19.33;;;25.20;83.60;;;;;;5100345;28;20334;-74
2023/05/08 11:21:03;;;;;;;21.85;20.15;;;25.40;80.80;;;;;;5090241;28;20490;-75
2023/05/08 11:23:33;;;;;;;20.17;18.67;;;25.70;78.70;;;;;;5090694;28;20073;-75
2023/05/08 11:26:05;;;;;;;19.48;18.00;;;26.00;78.30;;;;;;5090469;28;20520;-76
2023/05/08 11:28:55;;;;;;;20.45;18.95;;;26.20;78.50;;;;;;5097853;28;20044;-75
2023/05/08 11:31:22;;;;;;;21.25;19.55;;;27.00;75.10;;;;;;5098431;28;20139;-75
2023/05/08 11:33:47;;;;;;;21.10;19.50;;;27.70;80.40;;;;;;5101506;28;20443;-76
2023/05/08 11:36:21;;;;;;;18.83;17.50;;;28.40;75.50;;;;;;5110371;28;20035;-75
2023/05/08 11:39:09;;;;;;;20.00;18.40;;;29.10;69.50;;;;;;5095919;28;20056;-75
2023/05/08 11:41:35;;;;;;;21.70;20.10;;;29.20;63.90;;;;;;5098333;28;20051;-75
2023/05/08 11:44:15;;;;;;;20.02;18.48;;;29.10;67.80;;;;;;5093699;28;20035;-75
2023/05/08 11:46:52;;;;;;;19.38;17.98;;;29.10;66.30;;;;;;5101845;28;20043;-75
2023/05/08 11:49:20;;;;;;;19.98;18.48;;;28.90;64.10;;;;;;5099833;28;20036;-75
2023/05/08 11:51:49;;;;;;;21.15;19.35;;;28.90;66.70;;;;;;5105045;28;20505;-75
2023/05/08 11:54:17;;;;;;;21.15;19.45;;;28.70;66.00;;;;;;5098402;28;20081;-75
2023/05/08 11:56:45;;;;;;;21.60;19.73;;;28.70;66.70;;;;;;5108698;28;20126;-75
2023/05/08 11:59:12;;;;;;;21.55;19.65;;;28.60;66.60;;;;;;5111185;28;20051;-75
2023/05/08 12:01:37;;;;;;;21.38;19.88;;;28.50;67.30;;;;;;5112214;28;20119;-75
2023/05/08 12:04:07;;;;;;;21.98;20.38;;;28.50;66.00;;;;;;5102024;28;20178;-75
2023/05/08 12:06:34;;;;;;;22.63;21.00;;;28.30;65.40;;;;;;5110788;28;20036;-75
2023/05/08 12:09:01;;;;;;;23.10;21.38;;;28.20;66.80;;;;;;5106697;28;20043;-75
2023/05/08 12:11:27;;;;;;;23.05;21.00;;;28.70;66.40;;;;;;5104238;28;20039;-76
2023/05/08 12:13:54;;;;;;;22.55;20.85;;;29.10;67.80;;;;;;5104333;28;20616;-75
2023/05/08 12:16:21;;;;;;;21.08;19.50;;;29.50;65.80;;;;;;5095116;28;20505;-75
2023/05/08 12:18:49;;;;;;;21.40;19.80;;;29.80;65.30;;;;;;5104261;28;20120;-76
2023/05/08 12:21:15;;;;;;;21.65;19.95;;;30.20;67.20;;;;;;5113627;28;20043;-75
2023/05/08 12:23:41;;;;;;;21.73;20.02;;;30.20;65.90;;;;;;5113687;28;20117;-75
2023/05/08 12:26:07;;;;;;;20.60;19.00;;;29.90;64.10;;;;;;5104795;28;20074;-75
2023/05/08 12:28:33;;;;;;;21.55;19.95;;;29.40;66.30;;;;;;5105295;28;20043;-76
2023/05/08 12:31:00;;;;;;;20.17;18.67;;;29.40;65.60;;;;;;5090375;28;20081;-76
2023/05/08 12:33:27;;;;;;;20.27;18.63;;;29.60;64.10;;;;;;5104853;28;20060;-75
2023/05/08 12:35:54;;;;;;;20.17;18.58;;;29.40;63.50;;;;;;5104969;28;20317;-75
2023/05/08 12:38:25;;;;;;;19.73;18.02;;;29.10;66.00;;;;;;5096410;28;20071;-75
2023/05/08 12:40:51;;;;;;;19.23;17.73;;;29.00;68.60;;;;;;5103919;28;20058;-75
2023/05/08 12:43:17;;;;;;;19.02;17.48;;;29.00;68.70;;;;;;5097737;28;20066;-75
2023/05/08 12:45:43;;;;;;;19.10;17.60;;;28.60;66.60;;;;;;5103112;28;20502;-76
2023/05/08 12:48:12;;;;;;;18.23;16.63;;;28.00;65.30;;;;;;5113308;28;20049;-75
2023/05/08 12:50:39;;;;;;;20.08;18.35;;;27.70;69.40;;;;;;5113147;28;20382;-75
2023/05/08 12:53:13;;;;;;;19.92;18.33;;;27.50;70.10;;;;;;5109605;28;20055;-75